Time;durP1;ratioP1;P1;durP2;ratioP2;P2;SDS_P1;SDS_P2;PMS_P1;PMS_P2;Temp;Humidity;BMP_temperature;BMP_pressure;BME280_temperature;BME280_humidity;BME280_pressure;Samples;Min_cycle;Max_cycle;Signal;HPM_P1;HPM_P2
2022/08/21 00:00:00;;;;;;;48.20;35.80;;;20.60;99.90;;;;;;5091022;28;20273;-55
2022/08/21 00:02:47;;;;;;;45.60;36.63;;;20.50;99.90;;;;;;5092208;28;20279;-57
2022/08/21 00:05:13;;;;;;;39.70;33.93;;;20.50;99.90;;;;;;5089794;28;20178;-55
2022/08/21 00:07:39;;;;;;;44.80;34.73;;;20.30;99.90;;;;;;5091437;28;20422;-54
2022/08/21 00:10:05;;;;;;;45.13;34.07;;;20.20;99.90;;;;;;5092566;28;20443;-54
2022/08/21 00:12:31;;;;;;;47.20;36.00;;;20.20;99.90;;;;;;5091168;28;20190;-52
2022/08/21 00:14:57;;;;;;;49.80;38.10;;;20.10;99.90;;;;;;5089766;28;20848;-54
2022/08/21 00:20:43;;;;;;;45.27;36.47;;;20.10;99.90;;;;;;5069051;28;20451;-54
2022/08/21 00:23:10;;;;;;;58.70;39.93;;;20.20;99.90;;;;;;5085379;28;21877;-55
2022/08/21 00:25:36;;;;;;;50.20;37.43;;;20.20;99.90;;;;;;5087467;28;20441;-54
2022/08/21 00:28:22;;;;;;;48.07;36.50;;;20.10;99.90;;;;;;5090366;28;20483;-58
2022/08/21 00:30:48;;;;;;;55.80;37.60;;;20.30;99.90;;;;;;5090616;28;20949;-55
2022/08/21 00:33:13;;;;;;;49.40;36.40;;;20.30;99.90;;;;;;5087123;28;20455;-54
2022/08/21 00:35:43;;;;;;;51.50;39.37;;;20.30;99.90;;;;;;5088000;28;20191;-54
2022/08/21 00:38:09;;;;;;;52.50;37.03;;;20.30;99.90;;;;;;5084477;28;20234;-56
2022/08/21 00:40:41;;;;;;;53.50;37.40;;;20.30;99.90;;;;;;5088480;28;20527;-55
2022/08/21 00:46:37;;;;;;;53.37;39.53;;;20.30;99.90;;;;;;4933873;28;20457;-56
2022/08/21 00:49:05;;;;;;;55.07;41.43;;;20.20;99.90;;;;;;5075607;28;20433;-53
2022/08/21 00:51:44;;;;;;;52.40;39.13;;;20.40;99.90;;;;;;5088909;28;20448;-53
2022/08/21 00:54:11;;;;;;;56.03;40.70;;;20.30;99.90;;;;;;5087653;28;20763;-53
2022/08/21 00:56:37;;;;;;;50.77;38.17;;;18.80;99.90;;;;;;5090041;28;20513;-54
2022/08/21 00:59:05;;;;;;;58.20;42.67;;;20.30;99.90;;;;;;5089680;28;20514;-54
2022/08/21 01:01:30;;;;;;;50.50;38.97;;;20.40;99.90;;;;;;5088840;28;20206;-54
2022/08/21 01:03:56;;;;;;;59.00;38.53;;;20.40;99.90;;;;;;5089599;28;20453;-55
2022/08/21 01:06:21;;;;;;;53.97;39.10;;;20.30;99.90;;;;;;5088551;28;20203;-54
2022/08/21 01:08:48;;;;;;;51.97;38.30;;;20.30;99.90;;;;;;5087319;28;20183;-56
2022/08/21 01:11:15;;;;;;;52.67;40.60;;;20.40;99.90;;;;;;5090352;28;20240;-53
2022/08/21 01:13:46;;;;;;;57.97;41.87;;;20.40;99.90;;;;;;5088865;28;20471;-57
2022/08/21 01:16:15;;;;;;;53.23;41.07;;;20.50;99.90;;;;;;5089472;28;20440;-54
2022/08/21 01:18:41;;;;;;;50.63;38.70;;;20.60;99.90;;;;;;5085744;28;20448;-54
2022/08/21 01:21:13;;;;;;;44.83;34.67;;;20.50;99.90;;;;;;5090727;28;20916;-53
2022/08/21 01:23:42;;;;;;;40.13;31.20;;;20.50;99.90;;;;;;5089319;28;20447;-54
2022/08/21 01:26:09;;;;;;;43.13;34.00;;;20.40;99.90;;;;;;5090203;28;20510;-53
2022/08/21 01:28:41;;;;;;;39.30;29.70;;;20.20;99.90;;;;;;5086662;28;20829;-54
2022/08/21 01:31:09;;;;;;;32.17;27.47;;;20.10;99.90;;;;;;5088818;28;20453;-55
2022/08/21 01:33:35;;;;;;;29.90;24.67;;;20.00;99.90;;;;;;5088196;28;20888;-57
2022/08/21 01:36:00;;;;;;;27.30;22.10;;;19.90;99.90;;;;;;5086813;28;20444;-54
2022/08/21 01:38:27;;;;;;;23.00;20.50;;;19.90;99.90;;;;;;5086193;28;20246;-52
2022/08/21 01:40:52;;;;;;;26.83;22.60;;;19.90;99.90;;;;;;5087370;28;20218;-54
2022/08/21 01:43:18;;;;;;;24.43;21.67;;;19.80;99.90;;;;;;5087327;28;20435;-52
2022/08/21 01:45:44;;;;;;;24.60;20.23;;;19.80;99.90;;;;;;5086948;28;20186;-56
2022/08/21 01:48:10;;;;;;;24.40;20.47;;;19.80;99.90;;;;;;5089419;28;20229;-54
2022/08/21 01:50:35;;;;;;;21.43;19.20;;;19.90;99.90;;;;;;5085928;28;20925;-55
2022/08/21 01:53:01;;;;;;;19.53;17.10;;;19.90;99.90;;;;;;5088064;28;20441;-54
2022/08/21 01:55:27;;;;;;;18.70;16.70;;;19.90;99.90;;;;;;5089067;28;20191;-53
2022/08/21 01:57:53;;;;;;;18.03;15.27;;;19.80;99.90;;;;;;5087246;28;20187;-55
2022/08/21 02:00:24;;;;;;;19.43;17.63;;;19.80;99.90;;;;;;5088429;28;20892;-55
2022/08/21 02:02:51;;;;;;;20.73;16.67;;;19.90;99.90;;;;;;5086903;28;20331;-58
2022/08/21 02:05:18;;;;;;;19.43;17.23;;;19.80;99.90;;;;;;5087923;28;20449;-54
2022/08/21 02:07:47;;;;;;;19.20;16.30;;;19.90;99.90;;;;;;5083402;28;20448;-53
2022/08/21 02:10:20;;;;;;;21.43;16.63;;;19.90;99.90;;;;;;5087035;28;20445;-54
2022/08/21 02:12:46;;;;;;;19.40;17.40;;;19.80;99.90;;;;;;5087195;28;20427;-55
2022/08/21 02:15:12;;;;;;;23.63;18.13;;;19.80;99.90;;;;;;5087676;28;20455;-55
2022/08/21 02:17:43;;;;;;;19.90;16.30;;;19.80;99.90;;;;;;5086985;28;20704;-52
2022/08/21 02:20:10;;;;;;;21.83;19.13;;;19.80;99.90;;;;;;5082454;28;20195;-53
2022/08/21 02:22:36;;;;;;;20.00;17.10;;;19.80;99.90;;;;;;5088097;28;20479;-55
2022/08/21 02:25:02;;;;;;;19.70;17.60;;;19.80;99.90;;;;;;5086776;28;20456;-55
2022/08/21 02:27:28;;;;;;;19.53;17.50;;;19.90;99.90;;;;;;5089567;28;20615;-55
2022/08/21 02:29:56;;;;;;;18.63;16.67;;;20.00;99.90;;;;;;5086536;28;20447;-53
2022/08/21 02:32:21;;;;;;;18.43;16.23;;;20.00;99.90;;;;;;5087741;28;20194;-56
2022/08/21 02:34:48;;;;;;;17.70;15.80;;;19.90;99.90;;;;;;5086836;28;20508;-54
2022/08/21 02:37:14;;;;;;;19.13;15.60;;;19.90;99.90;;;;;;5088340;28;20285;-55
2022/08/21 02:39:39;;;;;;;15.77;14.17;;;19.90;99.90;;;;;;5087238;28;20451;-54
2022/08/21 02:42:05;;;;;;;16.97;15.23;;;19.80;99.90;;;;;;5088386;28;20202;-54
2022/08/21 02:44:30;;;;;;;17.10;15.07;;;19.80;99.90;;;;;;5084079;28;20320;-51
2022/08/21 02:46:56;;;;;;;17.70;14.73;;;19.90;99.90;;;;;;5088111;28;20191;-54
2022/08/21 02:49:22;;;;;;;16.63;14.90;;;19.90;99.90;;;;;;5086045;28;20190;-53
2022/08/21 02:51:47;;;;;;;16.40;14.70;;;19.90;99.90;;;;;;5087630;28;20193;-54
2022/08/21 02:54:13;;;;;;;15.77;14.27;;;20.00;99.90;;;;;;5085769;28;20187;-56
2022/08/21 02:56:38;;;;;;;16.60;14.97;;;20.00;99.90;;;;;;5085014;28;20505;-56
2022/08/21 02:59:04;;;;;;;16.70;15.00;;;20.10;99.90;;;;;;5085524;28;20185;-53
2022/08/21 03:01:29;;;;;;;17.67;15.80;;;20.00;99.90;;;;;;5087232;28;20268;-56
2022/08/21 03:03:55;;;;;;;16.23;14.67;;;20.10;99.90;;;;;;5086574;28;20201;-54
2022/08/21 03:06:22;;;;;;;16.73;15.00;;;19.80;99.90;;;;;;5087174;28;20186;-56
2022/08/21 03:08:48;;;;;;;17.60;15.80;;;20.10;99.90;;;;;;5086308;28;20209;-56
2022/08/21 03:11:15;;;;;;;16.90;15.10;;;20.10;99.90;;;;;;5086078;28;20945;-56
2022/08/21 03:13:41;;;;;;;15.23;13.70;;;20.10;99.90;;;;;;5085403;28;20432;-55
2022/08/21 03:16:07;;;;;;;17.50;15.60;;;20.10;99.90;;;;;;5087853;28;20527;-55
2022/08/21 03:18:33;;;;;;;17.20;15.50;;;20.10;99.90;;;;;;5082803;28;20566;-57
2022/08/21 03:20:58;;;;;;;17.40;15.70;;;20.20;99.90;;;;;;5088666;28;20486;-55
2022/08/21 03:23:24;;;;;;;16.90;15.20;;;20.20;99.90;;;;;;5086505;28;20656;-55
2022/08/21 03:25:50;;;;;;;18.33;16.37;;;20.20;99.90;;;;;;5086356;28;20269;-55
2022/08/21 03:28:19;;;;;;;17.70;15.80;;;20.20;99.90;;;;;;5085981;28;20214;-54
2022/08/21 03:30:47;;;;;;;17.83;16.13;;;20.20;99.90;;;;;;5086735;28;20423;-56
2022/08/21 03:33:13;;;;;;;17.07;15.30;;;20.20;99.90;;;;;;5086542;28;20448;-56
2022/08/21 03:35:41;;;;;;;17.60;15.80;;;20.10;99.90;;;;;;5086539;28;20474;-54
2022/08/21 03:38:07;;;;;;;16.87;15.07;;;20.10;99.90;;;;;;5082349;28;20230;-54
2022/08/21 03:40:33;;;;;;;19.43;17.43;;;20.20;99.90;;;;;;5087075;28;20444;-56
2022/08/21 03:42:58;;;;;;;20.27;17.33;;;20.20;99.90;;;;;;5085135;28;20777;-55
2022/08/21 03:45:25;;;;;;;21.53;17.93;;;20.10;99.90;;;;;;5085077;28;20261;-56
2022/08/21 03:48:00;;;;;;;21.83;19.50;;;20.00;99.90;;;;;;5086355;28;20214;-53
2022/08/21 03:50:29;;;;;;;23.90;19.50;;;20.00;99.90;;;;;;5084771;28;20794;-57
2022/08/21 03:52:56;;;;;;;25.73;20.10;;;19.90;99.90;;;;;;5085134;28;20458;-55
2022/08/21 03:55:22;;;;;;;23.07;20.37;;;19.80;99.90;;;;;;5088005;28;20448;-55
2022/08/21 03:57:47;;;;;;;23.03;19.87;;;19.80;99.90;;;;;;5081803;28;20776;-56
2022/08/21 04:00:15;;;;;;;22.13;19.73;;;19.70;99.90;;;;;;5086810;28;20453;-56
2022/08/21 04:02:42;;;;;;;22.30;19.97;;;19.70;99.90;;;;;;5087127;28;20210;-53
2022/08/21 04:05:08;;;;;;;26.23;21.73;;;19.80;99.90;;;;;;5086807;28;21042;-56
2022/08/21 04:07:35;;;;;;;24.07;20.83;;;19.90;99.90;;;;;;5087423;28;20476;-56
2022/08/21 04:10:00;;;;;;;23.00;20.10;;;19.80;99.90;;;;;;5086380;28;20435;-53
2022/08/21 04:12:26;;;;;;;25.60;21.63;;;19.80;99.90;;;;;;5083832;28;20444;-55
2022/08/21 04:14:52;;;;;;;21.20;18.77;;;19.80;99.90;;;;;;5085890;28;20293;-56
2022/08/21 04:17:17;;;;;;;24.67;19.50;;;19.70;99.90;;;;;;5088738;28;20190;-55
2022/08/21 04:19:43;;;;;;;23.70;21.20;;;19.70;99.90;;;;;;5087677;28;20183;-53
2022/08/21 04:22:09;;;;;;;27.13;24.10;;;19.70;99.90;;;;;;5087856;28;20457;-54
2022/08/21 04:24:35;;;;;;;22.90;20.47;;;19.60;99.90;;;;;;5087262;28;20439;-53
2022/08/21 04:27:01;;;;;;;20.87;18.60;;;19.60;99.90;;;;;;5087066;28;20197;-57
2022/08/21 04:29:26;;;;;;;19.27;17.27;;;19.60;99.90;;;;;;5087003;28;20239;-55
2022/08/21 04:31:52;;;;;;;21.63;18.50;;;19.50;99.90;;;;;;5086471;28;20191;-54
2022/08/21 04:34:18;;;;;;;20.00;18.00;;;19.50;99.90;;;;;;5089886;28;20275;-55
2022/08/21 04:36:44;;;;;;;19.63;17.70;;;19.60;99.90;;;;;;5091476;28;20210;-54
2022/08/21 04:39:09;;;;;;;17.20;15.50;;;19.60;99.90;;;;;;5089858;28;20511;-54
2022/08/21 04:41:36;;;;;;;17.97;16.07;;;19.60;99.90;;;;;;5090267;28;20206;-55
2022/08/21 04:44:02;;;;;;;17.90;16.10;;;19.60;99.90;;;;;;5090163;28;20236;-56
2022/08/21 04:46:29;;;;;;;18.40;16.60;;;19.70;99.90;;;;;;5090835;28;20441;-54
2022/08/21 04:48:54;;;;;;;18.67;16.77;;;19.70;99.90;;;;;;5089802;28;20453;-57
2022/08/21 04:51:28;;;;;;;18.67;16.87;;;19.80;99.90;;;;;;5090916;28;20525;-55
2022/08/21 04:53:56;;;;;;;18.37;16.43;;;19.80;99.90;;;;;;5089800;28;20216;-56
2022/08/21 04:56:28;;;;;;;17.73;16.03;;;19.90;99.90;;;;;;5089343;28;20780;-55
2022/08/21 04:58:56;;;;;;;17.77;16.00;;;19.80;99.90;;;;;;5091405;28;20411;-56
2022/08/21 05:01:25;;;;;;;16.10;14.60;;;19.90;99.90;;;;;;5089478;28;20423;-55
2022/08/21 05:03:56;;;;;;;15.13;13.67;;;19.90;99.90;;;;;;5091153;28;20766;-54
2022/08/21 05:06:23;;;;;;;17.47;15.73;;;20.20;99.90;;;;;;5089125;28;20483;-55
2022/08/21 05:08:51;;;;;;;16.10;14.60;;;20.20;99.90;;;;;;5089455;28;20946;-56
2022/08/21 05:11:18;;;;;;;14.40;12.60;;;20.30;99.90;;;;;;5089741;28;20454;-54
2022/08/21 05:13:43;;;;;;;16.37;14.77;;;20.30;99.90;;;;;;5089879;28;20452;-54
2022/08/21 05:16:09;;;;;;;16.33;14.80;;;20.40;99.90;;;;;;5091297;28;20437;-55
2022/08/21 05:18:35;;;;;;;15.17;13.57;;;20.30;99.90;;;;;;5089410;28;20178;-56
2022/08/21 05:21:00;;;;;;;15.17;13.70;;;20.40;99.90;;;;;;5073547;28;20183;-55
2022/08/21 05:23:26;;;;;;;14.00;12.63;;;20.40;99.90;;;;;;5088525;28;20218;-55
2022/08/21 05:25:52;;;;;;;14.47;12.73;;;20.60;99.90;;;;;;5088781;28;20249;-54
2022/08/21 05:28:19;;;;;;;14.50;13.20;;;20.70;99.90;;;;;;5089473;28;20187;-53
2022/08/21 05:30:45;;;;;;;12.87;11.60;;;20.80;99.90;;;;;;5086762;28;20445;-56
2022/08/21 05:33:10;;;;;;;14.47;12.97;;;20.80;99.90;;;;;;5088018;28;20901;-54
2022/08/21 05:35:37;;;;;;;15.70;13.17;;;20.90;99.90;;;;;;5088146;28;20198;-55
2022/08/21 05:38:04;;;;;;;14.57;13.17;;;21.10;99.90;;;;;;5088482;28;20218;-54
2022/08/21 05:40:30;;;;;;;16.03;14.50;;;21.10;99.90;;;;;;5087905;28;20441;-56
2022/08/21 05:42:56;;;;;;;14.77;13.37;;;21.30;99.90;;;;;;5088230;28;20547;-54
2022/08/21 05:45:25;;;;;;;17.50;15.80;;;21.30;99.90;;;;;;5088965;28;20520;-54
2022/08/21 05:47:51;;;;;;;17.70;16.00;;;21.40;99.90;;;;;;5085634;28;20445;-55
2022/08/21 05:50:17;;;;;;;17.30;15.70;;;21.40;99.90;;;;;;5089774;28;20533;-54
2022/08/21 05:52:42;;;;;;;17.87;16.17;;;21.40;92.80;;;;;;5070567;28;20192;-56
2022/08/21 05:55:08;;;;;;;21.30;19.00;;;21.40;90.40;;;;;;5087920;28;20198;-54
2022/08/21 05:57:33;;;;;;;20.70;18.50;;;21.50;82.50;;;;;;5089989;28;21172;-54
2022/08/21 05:59:59;;;;;;;21.43;19.23;;;21.30;81.10;;;;;;5088541;28;20198;-55
2022/08/21 06:02:25;;;;;;;21.53;19.23;;;21.30;91.20;;;;;;5087220;28;20207;-56
2022/08/21 06:04:50;;;;;;;21.93;19.83;;;21.30;93.20;;;;;;5088068;28;20185;-54
2022/08/21 06:07:16;;;;;;;24.80;22.30;;;21.30;97.10;;;;;;5087338;28;20194;-54
2022/08/21 06:09:41;;;;;;;23.60;21.17;;;21.30;91.20;;;;;;5089689;28;20295;-54
2022/08/21 06:12:10;;;;;;;24.30;21.80;;;21.40;97.30;;;;;;5088823;28;20205;-55
2022/08/21 06:14:38;;;;;;;26.80;23.97;;;21.50;92.60;;;;;;5089201;28;20187;-54
2022/08/21 06:17:09;;;;;;;25.83;23.10;;;21.60;80.20;;;;;;5085819;28;20508;-55
2022/08/21 06:19:35;;;;;;;25.30;22.70;;;21.60;66.60;;;;;;5087344;28;20452;-56
2022/08/21 06:22:02;;;;;;;25.80;23.30;;;21.40;57.90;;;;;;5085103;28;20468;-55
2022/08/21 06:24:28;;;;;;;26.00;23.30;;;21.40;70.30;;;;;;5089390;28;20448;-56
2022/08/21 06:26:54;;;;;;;27.47;24.60;;;21.40;73.70;;;;;;5086073;28;20803;-56
2022/08/21 06:29:20;;;;;;;28.00;24.00;;;21.40;77.80;;;;;;5072385;28;20183;-54
2022/08/21 06:31:48;;;;;;;26.43;23.77;;;21.40;66.20;;;;;;5087653;28;20842;-54
2022/08/21 06:34:13;;;;;;;25.17;22.60;;;20.80;61.40;;;;;;5088055;28;20568;-54
2022/08/21 06:36:39;;;;;;;25.20;22.73;;;21.30;55.50;;;;;;5088507;28;20535;-53
2022/08/21 06:39:05;;;;;;;26.30;23.60;;;19.50;57.70;;;;;;5087409;28;20475;-56
2022/08/21 06:41:31;;;;;;;28.70;24.10;;;21.40;60.20;;;;;;5087659;28;20206;-56
2022/08/21 06:43:57;;;;;;;25.33;22.80;;;21.40;51.70;;;;;;5086981;28;20525;-55
2022/08/21 06:46:25;;;;;;;26.73;22.47;;;21.40;50.80;;;;;;5085935;28;20434;-54
2022/08/21 06:48:51;;;;;;;23.40;21.10;;;21.40;44.60;;;;;;5088519;28;20445;-56
2022/08/21 06:51:17;;;;;;;23.20;20.80;;;21.40;40.00;;;;;;5089038;28;20490;-55
2022/08/21 06:53:43;;;;;;;23.53;20.80;;;21.30;39.80;;;;;;5088147;28;20201;-57
2022/08/21 06:56:08;;;;;;;24.23;21.70;;;21.40;37.60;;;;;;5088095;28;20440;-55
2022/08/21 06:58:34;;;;;;;23.43;21.13;;;21.40;39.30;;;;;;5087511;28;20241;-54
2022/08/21 07:01:00;;;;;;;23.33;20.83;;;21.40;46.50;;;;;;5089421;28;20605;-56
2022/08/21 07:03:35;;;;;;;22.60;20.23;;;21.50;29.70;;;;;;5086401;28;20202;-56
2022/08/21 07:06:01;;;;;;;23.03;20.73;;;21.50;13.50;;;;;;5086847;28;20175;-56
2022/08/21 07:08:28;;;;;;;22.50;20.27;;;21.60;1.00;;;;;;5086946;28;20911;-55
2022/08/21 07:10:56;;;;;;;20.80;19.00;;;21.70;1.00;;;;;;5089165;28;20543;-55
2022/08/21 07:13:22;;;;;;;22.17;20.00;;;21.70;1.00;;;;;;5087799;28;20789;-55
2022/08/21 07:15:47;;;;;;;20.97;18.97;;;21.70;1.00;;;;;;5086527;28;20463;-53
2022/08/21 07:18:13;;;;;;;22.03;19.83;;;21.70;1.00;;;;;;5087513;28;20217;-55
2022/08/21 07:20:40;;;;;;;21.13;19.13;;;21.90;1.00;;;;;;5088670;28;20237;-54
2022/08/21 07:23:16;;;;;;;20.50;18.53;;;22.00;1.00;;;;;;5088142;28;20211;-56
2022/08/21 07:25:41;;;;;;;22.30;20.10;;;22.00;1.00;;;;;;5086161;28;20431;-55
2022/08/21 07:28:07;;;;;;;23.50;20.50;;;22.10;1.00;;;;;;5087467;28;20501;-55
2022/08/21 07:30:33;;;;;;;21.57;19.50;;;22.00;1.00;;;;;;5087543;28;20659;-56
2022/08/21 07:32:59;;;;;;;19.60;17.77;;;;;;;;;;5086986;28;20446;-56
2022/08/21 07:35:24;;;;;;;21.90;19.80;;;22.00;1.00;;;;;;5067494;28;20277;-55
2022/08/21 07:37:50;;;;;;;19.70;17.90;;;22.00;1.00;;;;;;5069658;28;20856;-55
2022/08/21 07:40:17;;;;;;;19.20;17.50;;;22.10;1.00;;;;;;5087021;28;20290;-57
2022/08/21 07:42:51;;;;;;;20.23;18.33;;;22.30;1.00;;;;;;5085957;28;20202;-54
2022/08/21 07:45:19;;;;;;;20.10;18.30;;;22.30;1.00;;;;;;5083785;28;20440;-55
2022/08/21 07:47:44;;;;;;;20.43;18.63;;;22.30;1.00;;;;;;5086607;28;20469;-55
2022/08/21 07:50:12;;;;;;;19.20;17.50;;;22.20;1.00;;;;;;5087319;28;20472;-55
2022/08/21 07:52:38;;;;;;;19.60;17.67;;;22.20;1.00;;;;;;5085904;28;20443;-56
2022/08/21 07:55:07;;;;;;;18.50;16.83;;;22.20;1.00;;;;;;5087030;28;20439;-57
2022/08/21 07:57:33;;;;;;;18.73;17.00;;;22.20;1.00;;;;;;5087007;28;20415;-56
2022/08/21 07:59:59;;;;;;;17.87;16.17;;;22.10;1.00;;;;;;5087241;28;20447;-57
2022/08/21 08:02:27;;;;;;;19.30;17.50;;;22.30;1.00;;;;;;5071668;28;20513;-55
2022/08/21 08:04:53;;;;;;;19.27;17.57;;;22.20;1.00;;;;;;5086665;28;20900;-58
2022/08/21 08:07:18;;;;;;;17.73;16.20;;;22.30;1.00;;;;;;5087055;28;20436;-55
2022/08/21 08:09:44;;;;;;;19.40;17.70;;;22.10;1.00;;;;;;5085313;28;20950;-56
2022/08/21 08:12:10;;;;;;;19.23;17.50;;;22.00;1.00;;;;;;5089267;28;20667;-54
2022/08/21 08:14:36;;;;;;;17.73;16.17;;;22.10;1.00;;;;;;5091065;28;20440;-56
2022/08/21 08:17:02;;;;;;;17.50;16.00;;;22.10;1.00;;;;;;5090722;28;20607;-56
2022/08/21 08:19:28;;;;;;;17.90;16.00;;;22.10;1.00;;;;;;5090277;28;20667;-55
2022/08/21 08:21:54;;;;;;;17.97;16.27;;;22.50;1.00;;;;;;5090679;28;20438;-56
2022/08/21 08:24:20;;;;;;;17.50;15.87;;;22.40;1.00;;;;;;5091263;28;20451;-55
2022/08/21 08:26:46;;;;;;;18.03;16.33;;;22.60;1.00;;;;;;5092047;28;20433;-54
2022/08/21 08:29:12;;;;;;;17.40;15.90;;;22.60;1.00;;;;;;5090124;28;20315;-56
2022/08/21 08:31:38;;;;;;;17.47;15.80;;;22.80;1.00;;;;;;5088581;28;20663;-55
2022/08/21 08:34:04;;;;;;;20.40;18.27;;;22.90;1.00;;;;;;5069046;28;20700;-55
2022/08/21 08:36:35;;;;;;;17.10;15.67;;;23.00;1.00;;;;;;5090938;28;20193;-56
2022/08/21 08:39:03;;;;;;;17.10;15.60;;;23.10;1.00;;;;;;5087383;28;20602;-57
2022/08/21 08:41:30;;;;;;;16.77;15.23;;;23.10;1.00;;;;;;5090193;28;20448;-54
2022/08/21 08:44:00;;;;;;;15.80;14.40;;;23.10;1.00;;;;;;5090944;28;20444;-55
2022/08/21 08:46:35;;;;;;;17.17;14.77;;;23.30;1.00;;;;;;5088363;28;20464;-55
2022/08/21 08:49:07;;;;;;;15.80;14.30;;;23.40;1.00;;;;;;5088138;28;20476;-55
2022/08/21 08:51:42;;;;;;;16.60;15.00;;;23.70;1.00;;;;;;5090688;28;20439;-55
2022/08/21 08:54:12;;;;;;;16.87;15.30;;;23.40;1.00;;;;;;5086794;28;20917;-55
2022/08/21 08:56:38;;;;;;;14.43;13.10;;;23.40;1.00;;;;;;5091302;28;20437;-55
2022/08/21 08:59:47;;;;;;;14.33;12.93;;;23.40;1.00;;;;;;5089683;28;20441;-55
2022/08/21 09:02:14;;;;;;;15.17;13.63;;;23.60;1.00;;;;;;5080422;28;20461;-54
2022/08/21 09:04:41;;;;;;;13.10;12.03;;;23.40;1.00;;;;;;5090033;28;20455;-56
2022/08/21 09:07:25;;;;;;;13.03;11.93;;;23.80;1.00;;;;;;5084544;28;20766;-55
2022/08/21 09:10:13;;;;;;;14.33;13.13;;;23.80;1.00;;;;;;5088632;28;20925;-56
2022/08/21 09:12:44;;;;;;;13.10;11.80;;;23.60;1.00;;;;;;5090508;28;20451;-55
2022/08/21 09:15:35;;;;;;;11.90;10.63;;;23.60;1.00;;;;;;5091487;28;20407;-56
2022/08/21 09:18:22;;;;;;;11.43;10.43;;;23.60;1.00;;;;;;5088628;28;20426;-55
2022/08/21 09:21:12;;;;;;;12.07;9.93;;;23.70;1.00;;;;;;5088342;28;20448;-55
2022/08/21 09:23:54;;;;;;;11.30;10.30;;;23.90;1.00;;;;;;5085989;28;20464;-56
2022/08/21 09:26:25;;;;;;;11.77;10.77;;;23.90;1.00;;;;;;5071747;28;20441;-54
2022/08/21 09:28:57;;;;;;;10.60;9.60;;;23.90;1.00;;;;;;5090295;28;20831;-55
2022/08/21 09:31:33;;;;;;;13.03;9.50;;;24.00;1.00;;;;;;5088352;28;20516;-55
2022/08/21 09:34:06;;;;;;;10.60;9.70;;;24.10;1.00;;;;;;5090154;28;20503;-56
2022/08/21 09:36:38;;;;;;;10.57;9.57;;;24.30;1.00;;;;;;5089556;28;20521;-54
2022/08/21 09:39:05;;;;;;;11.50;8.77;;;24.30;1.00;;;;;;5089149;28;20850;-56
2022/08/21 09:41:35;;;;;;;9.13;8.23;;;24.10;1.00;;;;;;5088935;28;20437;-57
2022/08/21 09:44:02;;;;;;;9.03;8.20;;;24.10;1.00;;;;;;5089561;28;20455;-56
2022/08/21 09:46:28;;;;;;;9.70;8.70;;;24.20;1.00;;;;;;5089788;28;20540;-56
2022/08/21 09:48:59;;;;;;;9.77;6.90;;;24.40;1.00;;;;;;5090121;28;20452;-57
2022/08/21 09:51:26;;;;;;;9.67;8.77;;;24.20;1.00;;;;;;5088969;28;20448;-57
2022/08/21 09:54:07;;;;;;;8.50;7.70;;;24.10;1.00;;;;;;5089433;28;20448;-55
2022/08/21 09:59:32;;;;;;;5.47;4.90;;;23.80;1.00;;;;;;5088340;28;20937;-56
2022/08/21 10:02:01;;;;;;;5.53;4.83;;;23.90;1.00;;;;;;5089129;28;20460;-55
2022/08/21 10:04:35;;;;;;;5.80;4.77;;;24.10;1.00;;;;;;5087789;28;20452;-55
2022/08/21 10:07:14;;;;;;;7.33;4.63;;;24.30;1.00;;;;;;5088844;28;20879;-55
2022/08/21 10:09:40;;;;;;;7.67;5.03;;;24.50;1.00;;;;;;5071331;28;20429;-56
2022/08/21 10:12:13;;;;;;;5.73;4.57;;;24.80;1.00;;;;;;5087261;28;20460;-56
2022/08/21 10:15:19;;;;;;;5.13;4.70;;;25.00;1.00;;;;;;5071851;28;20444;-55
2022/08/21 10:18:10;;;;;;;5.60;4.00;;;25.10;1.00;;;;;;5082497;28;20446;-56
2022/08/21 10:20:51;;;;;;;4.90;4.17;;;25.20;1.00;;;;;;5088184;28;20452;-56
2022/08/21 10:23:38;;;;;;;4.70;3.67;;;25.30;1.00;;;;;;5088130;28;20460;-56
2022/08/21 10:26:12;;;;;;;4.93;4.40;;;25.40;1.00;;;;;;5088079;28;20872;-56
2022/08/21 10:28:52;;;;;;;4.17;3.67;;;25.70;1.00;;;;;;5068067;28;20455;-55
2022/08/21 10:31:40;;;;;;;6.10;3.90;;;25.80;1.00;;;;;;5066270;28;20745;-57
2022/08/21 10:34:17;;;;;;;6.13;4.07;;;25.80;1.00;;;;;;5088112;28;20967;-56
2022/08/21 10:37:02;;;;;;;4.70;4.27;;;25.90;1.00;;;;;;5087992;28;20448;-56
2022/08/21 10:39:51;;;;;;;3.93;3.60;;;26.00;1.00;;;;;;5088230;28;20482;-57
2022/08/21 10:42:24;;;;;;;5.10;4.10;;;26.10;1.00;;;;;;5087057;28;20597;-55
2022/08/21 10:45:15;;;;;;;5.03;4.30;;;25.60;1.00;;;;;;5089227;28;20432;-56
2022/08/21 10:47:48;;;;;;;4.60;3.63;;;25.60;1.00;;;;;;5088369;28;20499;-57
2022/08/21 10:50:24;;;;;;;4.07;3.57;;;25.50;1.00;;;;;;5086567;28;20498;-57
2022/08/21 10:53:16;;;;;;;4.50;3.50;;;25.60;1.00;;;;;;5088252;28;20433;-56
2022/08/21 10:55:59;;;;;;;5.60;3.10;;;25.80;1.00;;;;;;5057239;28;20456;-56
2022/08/21 10:58:36;;;;;;;3.73;3.43;;;25.90;1.00;;;;;;5086759;28;20472;-57
2022/08/21 11:01:18;;;;;;;6.70;3.30;;;26.00;1.00;;;;;;5088292;28;20931;-56
2022/08/21 11:03:48;;;;;;;6.67;4.30;;;25.90;1.00;;;;;;5086436;28;20472;-56
2022/08/21 11:06:31;;;;;;;4.43;3.97;;;25.90;1.00;;;;;;5088298;28;20452;-57
2022/08/21 11:09:13;;;;;;;5.07;4.00;;;25.90;1.00;;;;;;5086788;28;20490;-57
2022/08/21 11:11:57;;;;;;;7.83;3.47;;;25.80;1.00;;;;;;5087241;28;20742;-56
2022/08/21 11:14:54;;;;;;;4.87;3.60;;;25.70;1.00;;;;;;5085747;28;20875;-56
2022/08/21 11:17:30;;;;;;;5.40;3.30;;;25.60;1.00;;;;;;5089116;28;20428;-56
2022/08/21 11:20:18;;;;;;;7.43;4.03;;;25.50;1.00;;;;;;5088358;28;20511;-56
2022/08/21 11:22:54;;;;;;;8.20;3.90;;;25.30;1.00;;;;;;5087069;28;20488;-56
2022/08/21 11:25:29;;;;;;;6.77;4.30;;;25.50;1.00;;;;;;5087271;28;20452;-56
2022/08/21 11:28:08;;;;;;;4.20;3.30;;;25.80;1.00;;;;;;5083946;28;20436;-57
2022/08/21 11:31:12;;;;;;;6.37;3.60;;;26.20;1.00;;;;;;5085760;28;20479;-57
2022/08/21 11:33:46;;;;;;;5.53;3.07;;;26.50;1.00;;;;;;5066720;28;20451;-57
2022/08/21 11:36:21;;;;;;;5.30;3.37;;;26.40;1.00;;;;;;5088444;28;20440;-56
2022/08/21 11:39:12;;;;;;;3.80;3.30;;;26.30;1.00;;;;;;5086688;28;20497;-56
2022/08/21 11:41:46;;;;;;;5.53;2.83;;;26.40;1.00;;;;;;5088439;28;20493;-57
2022/08/21 11:44:45;;;;;;;3.00;2.70;;;26.50;1.00;;;;;;5088492;28;20474;-55
2022/08/21 11:47:17;;;;;;;5.90;3.20;;;26.50;1.00;;;;;;5090999;28;20990;-55
2022/08/21 11:49:49;;;;;;;6.00;2.90;;;26.70;1.00;;;;;;5090903;28;20494;-57
2022/08/21 11:52:30;;;;;;;3.90;3.23;;;26.80;1.00;;;;;;5089617;28;20451;-56
2022/08/21 11:55:12;;;;;;;5.67;3.17;;;27.10;1.00;;;;;;5090695;28;20453;-57
2022/08/21 11:57:50;;;;;;;4.17;2.30;;;27.50;1.00;;;;;;5091607;28;20505;-56
2022/08/21 12:00:22;;;;;;;5.60;2.23;;;27.50;1.00;;;;;;5090404;28;20531;-57
2022/08/21 12:02:54;;;;;;;3.83;2.10;;;27.50;1.00;;;;;;5072572;28;20472;-55
2022/08/21 12:05:40;;;;;;;3.57;2.23;;;27.50;1.00;;;;;;5091400;28;20451;-56
2022/08/21 12:08:26;;;;;;;5.70;2.60;;;27.30;1.00;;;;;;5091182;28;20848;-58
2022/08/21 12:11:18;;;;;;;10.10;2.33;;;27.70;1.00;;;;;;5089123;28;20455;-57
2022/08/21 12:14:05;;;;;;;6.87;2.40;;;27.60;1.00;;;;;;5091599;28;20443;-57
2022/08/21 12:16:37;;;;;;;2.63;2.10;;;27.10;1.00;;;;;;5089265;28;20514;-56
2022/08/21 12:19:14;;;;;;;3.53;2.20;;;26.90;1.00;;;;;;5088498;28;20437;-55
2022/08/21 12:22:13;;;;;;;4.53;2.20;;;27.00;1.00;;;;;;5071244;28;20451;-55
2022/08/21 12:24:47;;;;;;;6.50;2.43;;;27.30;1.00;;;;;;5056606;28;20441;-57
2022/08/21 12:27:29;;;;;;;3.47;2.27;;;27.30;1.00;;;;;;5091135;28;20786;-56
2022/08/21 12:30:18;;;;;;;6.37;2.23;;;27.20;1.00;;;;;;5090995;28;21696;-55
2022/08/21 12:32:53;;;;;;;6.60;1.93;;;27.20;1.00;;;;;;5089696;28;20451;-56
2022/08/21 12:35:25;;;;;;;4.43;1.90;;;27.00;1.00;;;;;;5089135;28;20534;-56
2022/08/21 12:38:04;;;;;;;5.67;2.07;;;27.00;1.00;;;;;;5091020;28;20448;-55
2022/08/21 12:40:41;;;;;;;3.63;2.20;;;26.80;1.00;;;;;;5090459;28;20792;-56
2022/08/21 12:43:14;;;;;;;4.20;2.10;;;27.00;1.00;;;;;;5091514;28;20976;-57
2022/08/21 12:45:46;;;;;;;4.50;2.30;;;27.10;1.00;;;;;;5091337;28;20794;-53
2022/08/21 12:48:21;;;;;;;5.53;2.40;;;26.40;1.00;;;;;;5089136;28;20984;-57
2022/08/21 12:50:53;;;;;;;5.87;2.70;;;26.00;1.00;;;;;;5088901;28;20523;-54
2022/08/21 12:53:28;;;;;;;3.97;2.00;;;25.90;1.00;;;;;;5089178;28;20857;-55
2022/08/21 12:55:59;;;;;;;4.20;1.77;;;26.10;1.00;;;;;;5087813;28;20444;-55
2022/08/21 12:58:25;;;;;;;3.10;1.97;;;26.00;1.00;;;;;;5086382;28;21026;-57
2022/08/21 13:00:56;;;;;;;5.77;2.30;;;26.00;1.00;;;;;;5086652;28;20524;-57